createdAt,value
2023-02-14T00:01:17.339Z,26.42
2023-02-14T00:03:49.922Z,27.02
2023-02-14T00:06:20.590Z,26.35
2023-02-14T00:08:54.703Z,27.88
2023-02-14T00:11:25.427Z,27.10
2023-02-14T00:14:08.036Z,28.35
2023-02-14T00:16:38.461Z,27.50
2023-02-14T00:19:09.202Z,29.63
2023-02-14T00:21:41.465Z,30.75
2023-02-14T00:24:16.495Z,27.05
2023-02-14T00:26:47.650Z,26.85
2023-02-14T00:29:20.418Z,28.00
2023-02-14T00:31:51.606Z,27.17
2023-02-14T00:34:23.162Z,26.80
2023-02-14T00:36:54.451Z,27.05
2023-02-14T00:39:28.106Z,27.20
2023-02-14T00:41:58.550Z,25.88
2023-02-14T00:44:29.384Z,26.05
2023-02-14T00:46:59.783Z,25.25
2023-02-14T00:49:30.542Z,26.20
2023-02-14T00:52:03.160Z,26.25
2023-02-14T00:54:37.617Z,25.88
2023-02-14T00:57:08.363Z,24.85
2023-02-14T00:59:40.169Z,24.33
2023-02-14T01:02:10.708Z,24.60
2023-02-14T01:04:41.112Z,25.77
2023-02-14T01:07:11.460Z,23.08
2023-02-14T01:09:44.834Z,23.30
2023-02-14T01:12:15.261Z,23.85
2023-02-14T01:14:46.450Z,22.63
2023-02-14T01:17:16.931Z,24.80
2023-02-14T01:19:47.648Z,22.13
2023-02-14T01:22:17.976Z,21.70
2023-02-14T01:24:52.002Z,23.48
2023-02-14T01:27:22.468Z,23.58
2023-02-14T01:29:52.874Z,22.52
2023-02-14T01:32:23.326Z,22.90
2023-02-14T01:34:54.357Z,21.15
2023-02-14T01:37:24.673Z,23.00
2023-02-14T01:39:57.989Z,22.88
2023-02-14T01:42:28.406Z,22.35
2023-02-14T01:45:05.383Z,22.55
2023-02-14T01:47:40.439Z,21.85
2023-02-14T01:50:14.542Z,21.67
2023-02-14T01:52:50.896Z,22.73
2023-02-14T01:55:28.013Z,21.02
2023-02-14T01:58:03.287Z,23.13
2023-02-14T02:00:46.549Z,20.85
2023-02-14T02:03:18.050Z,21.73
2023-02-14T02:05:52.888Z,21.92
2023-02-14T02:08:23.586Z,22.00
2023-02-14T02:10:57.344Z,22.45
2023-02-14T02:16:16.813Z,20.52
2023-02-14T02:19:01.717Z,22.65
2023-02-14T02:21:56.804Z,22.02
2023-02-14T02:24:39.079Z,22.58
2023-02-14T02:27:49.388Z,23.15
2023-02-14T02:31:05.078Z,22.75
2023-02-14T02:34:24.861Z,22.65
2023-02-14T02:37:07.557Z,22.80
2023-02-14T02:40:06.545Z,20.63
2023-02-14T02:42:51.368Z,22.70
2023-02-14T02:45:31.544Z,24.20
2023-02-14T02:48:09.875Z,22.23
2023-02-14T02:50:57.246Z,24.27
2023-02-14T02:53:37.528Z,24.58
2023-02-14T02:56:25.797Z,23.60
2023-02-14T02:59:01.022Z,24.63
2023-02-14T03:01:37.144Z,27.13
2023-02-14T03:04:25.868Z,27.55
2023-02-14T03:06:56.679Z,28.05
2023-02-14T03:09:57.770Z,24.30
2023-02-14T03:12:58.897Z,24.98
2023-02-14T03:15:44.142Z,23.48
2023-02-14T03:18:28.661Z,25.35
2023-02-14T03:21:07.137Z,24.45
2023-02-14T03:23:48.520Z,25.25
2023-02-14T03:26:27.827Z,26.90
2023-02-14T03:29:08.506Z,28.55
2023-02-14T03:31:48.133Z,26.40
2023-02-14T03:34:24.672Z,28.88
2023-02-14T03:37:02.593Z,29.45
2023-02-14T03:39:40.942Z,30.65
2023-02-14T03:42:22.403Z,30.38
2023-02-14T03:44:55.950Z,29.80
2023-02-14T03:47:32.137Z,28.52
2023-02-14T03:50:06.173Z,30.35
2023-02-14T03:52:39.456Z,29.52
2023-02-14T03:55:12.977Z,28.65
2023-02-14T03:57:53.231Z,29.02
2023-02-14T04:00:24.239Z,29.42
2023-02-14T04:02:59.114Z,28.83
2023-02-14T04:05:31.872Z,29.58
2023-02-14T04:08:04.006Z,33.38
2023-02-14T04:10:35.171Z,33.22
2023-02-14T04:13:08.338Z,30.13
2023-02-14T04:15:39.385Z,26.88
2023-02-14T04:18:22.259Z,29.35
2023-02-14T04:20:52.498Z,28.73
2023-02-14T04:23:22.901Z,27.60
2023-02-14T04:25:53.792Z,29.58
2023-02-14T04:28:27.562Z,29.05
2023-02-14T04:30:58.708Z,29.70
2023-02-14T04:33:29.294Z,29.17
2023-02-14T04:36:00.189Z,33.95
2023-02-14T04:38:30.629Z,35.90
2023-02-14T04:41:01.682Z,37.50
2023-02-14T04:43:35.042Z,38.67
2023-02-14T04:46:05.667Z,36.55
2023-02-14T04:48:35.875Z,31.90
2023-02-14T04:51:07.328Z,31.08
2023-02-14T04:53:40.765Z,29.77
2023-02-14T04:56:11.400Z,28.38
2023-02-14T04:58:46.476Z,28.35
2023-02-14T05:01:16.952Z,28.00
2023-02-14T05:03:47.474Z,31.08
2023-02-14T05:06:18.019Z,29.73
2023-02-14T05:08:48.400Z,30.27
2023-02-14T05:11:18.919Z,29.65
2023-02-14T05:13:52.190Z,30.85
2023-02-14T05:16:22.950Z,31.70
2023-02-14T05:18:53.781Z,32.10
2023-02-14T05:21:24.486Z,30.65
2023-02-14T05:23:54.760Z,32.95
2023-02-14T05:26:25.414Z,33.33
2023-02-14T05:28:58.741Z,33.92
2023-02-14T05:31:29.170Z,33.30
2023-02-14T05:33:59.685Z,34.65
2023-02-14T05:36:30.321Z,37.83
2023-02-14T05:39:01.053Z,35.65
2023-02-14T05:41:31.790Z,35.40
2023-02-14T05:44:04.790Z,35.17
2023-02-14T05:46:35.404Z,33.90
2023-02-14T05:49:05.844Z,32.20
2023-02-14T05:51:36.494Z,33.15
2023-02-14T05:54:08.877Z,31.67
2023-02-14T05:56:40.999Z,32.38
2023-02-14T05:59:14.829Z,33.38
2023-02-14T06:01:46.040Z,32.35
2023-02-14T06:04:16.894Z,29.27
2023-02-14T06:06:47.385Z,32.40
2023-02-14T06:09:18.778Z,29.55
2023-02-14T06:11:49.077Z,31.25
2023-02-14T06:14:22.491Z,32.05
2023-02-14T06:16:53.206Z,31.30
2023-02-14T06:19:23.902Z,29.45
2023-02-14T06:21:54.593Z,30.65
2023-02-14T06:24:25.262Z,30.45
2023-02-14T06:26:55.832Z,29.13
2023-02-14T06:29:29.167Z,29.08
2023-02-14T06:32:06.062Z,29.10
2023-02-14T06:34:37.177Z,29.77
2023-02-14T06:37:07.777Z,31.02
2023-02-14T06:39:38.331Z,29.58
2023-02-14T06:42:09.012Z,29.95
2023-02-14T06:44:42.194Z,31.08
2023-02-14T06:47:12.664Z,31.35
2023-02-14T06:49:43.121Z,29.67
2023-02-14T06:52:13.768Z,28.52
2023-02-14T06:54:44.365Z,30.55
2023-02-14T06:57:14.745Z,33.17
2023-02-14T06:59:48.250Z,33.08
2023-02-14T07:02:19.173Z,34.78
2023-02-14T07:04:49.782Z,30.88
2023-02-14T07:07:20.422Z,30.27
2023-02-14T07:09:51.131Z,32.47
2023-02-14T07:12:21.551Z,31.13
2023-02-14T07:14:54.711Z,31.77
2023-02-14T07:17:25.084Z,34.25
2023-02-14T07:19:55.346Z,37.85
2023-02-14T07:22:26.153Z,34.72
2023-02-14T07:24:56.332Z,34.42
2023-02-14T07:27:26.730Z,35.83
2023-02-14T07:30:00.236Z,37.55
2023-02-14T07:32:30.913Z,29.85
2023-02-14T07:35:01.726Z,33.20
2023-02-14T07:37:32.107Z,32.40
2023-02-14T07:40:02.773Z,34.67
2023-02-14T07:42:33.051Z,30.02
2023-02-14T07:45:20.838Z,29.80
2023-02-14T07:47:52.186Z,30.13
2023-02-14T07:50:23.618Z,28.85
2023-02-14T07:52:54.525Z,33.20
2023-02-14T07:55:26.362Z,32.33
2023-02-14T07:57:57.030Z,35.30
2023-02-14T08:00:30.653Z,29.75
2023-02-14T08:03:01.296Z,33.10
2023-02-14T08:05:31.774Z,35.05
2023-02-14T08:08:02.235Z,31.48
2023-02-14T08:10:32.666Z,31.27
2023-02-14T08:13:00.611Z,30.65
2023-02-14T08:15:48.696Z,33.60
2023-02-14T08:18:19.878Z,33.20
2023-02-14T08:20:51.987Z,32.60
2023-02-14T08:23:23.973Z,33.55
2023-02-14T08:25:55.602Z,32.42
2023-02-14T08:28:26.366Z,32.65
2023-02-14T08:31:00.810Z,33.92
2023-02-14T08:33:32.037Z,33.28
2023-02-14T08:36:02.750Z,32.28
2023-02-14T08:38:33.350Z,32.80
2023-02-14T08:41:08.315Z,30.88
2023-02-14T08:43:39.347Z,31.73
2023-02-14T08:46:12.770Z,30.30
2023-02-14T08:48:43.479Z,30.40
2023-02-14T08:51:17.337Z,32.20
2023-02-14T08:56:19.091Z,32.45
2023-02-14T08:58:49.639Z,32.00
2023-02-14T09:01:25.886Z,30.17
2023-02-14T09:03:57.051Z,30.95
2023-02-14T09:06:28.084Z,30.55
2023-02-14T09:09:00.293Z,30.67
2023-02-14T09:11:31.885Z,28.33
2023-02-14T09:14:02.190Z,27.05
2023-02-14T09:16:35.865Z,30.88
2023-02-14T09:19:06.645Z,29.90
2023-02-14T09:21:37.143Z,29.00
2023-02-14T09:24:07.536Z,26.98
2023-02-14T09:26:42.472Z,28.00
2023-02-14T09:29:13.917Z,29.17
2023-02-14T09:31:47.095Z,28.35
2023-02-14T09:34:29.654Z,27.95
2023-02-14T09:36:59.878Z,38.80
2023-02-14T09:39:30.933Z,30.77
2023-02-14T09:42:31.872Z,30.20
2023-02-14T09:45:09.081Z,29.83
2023-02-14T09:47:47.581Z,29.73
2023-02-14T09:50:26.329Z,27.98
2023-02-14T09:53:00.429Z,30.17
2023-02-14T09:55:38.225Z,28.63
2023-02-14T09:58:13.320Z,30.08
2023-02-14T10:00:58.263Z,30.65
2023-02-14T10:03:52.324Z,32.78
2023-02-14T10:06:43.301Z,30.58
2023-02-14T10:09:30.912Z,31.33
2023-02-14T10:12:03.939Z,30.17
2023-02-14T10:14:41.231Z,32.63
2023-02-14T10:17:18.546Z,31.35
2023-02-14T10:19:57.638Z,29.35
2023-02-14T10:22:38.089Z,30.83
2023-02-14T10:25:17.422Z,32.17
2023-02-14T10:27:50.095Z,30.63
2023-02-14T10:30:22.567Z,29.70
2023-02-14T10:33:01.082Z,32.13
2023-02-14T10:35:43.693Z,32.97
2023-02-14T10:38:28.032Z,29.50
2023-02-14T10:41:23.130Z,30.45
2023-02-14T10:44:02.099Z,29.67
2023-02-14T10:46:41.691Z,30.95
2023-02-14T10:49:28.941Z,30.23
2023-02-14T10:52:11.113Z,29.65
2023-02-14T10:54:45.523Z,30.60
2023-02-14T10:57:20.111Z,33.53
2023-02-14T10:59:55.932Z,30.90
2023-02-14T11:02:30.731Z,30.60
2023-02-14T11:05:02.472Z,28.80
2023-02-14T11:07:35.978Z,30.17
2023-02-14T11:10:11.952Z,34.10
2023-02-14T11:12:44.554Z,29.98
2023-02-14T11:15:25.473Z,30.00
2023-02-14T11:18:13.648Z,30.50
2023-02-14T11:20:44.042Z,28.70
2023-02-14T11:23:27.729Z,28.38
2023-02-14T11:26:01.144Z,29.48
2023-02-14T11:28:31.997Z,28.33
2023-02-14T11:31:03.645Z,24.58
2023-02-14T11:33:42.126Z,25.55
2023-02-14T11:36:17.063Z,26.95
2023-02-14T11:38:59.912Z,33.78
2023-02-14T11:41:30.559Z,27.88
2023-02-14T11:44:22.684Z,26.92
2023-02-14T11:46:54.398Z,29.10
2023-02-14T11:49:31.796Z,48.35
2023-02-14T11:52:04.816Z,27.40
2023-02-14T11:54:51.018Z,26.63
2023-02-14T11:57:28.989Z,25.27
2023-02-14T12:00:01.253Z,23.50
2023-02-14T12:02:35.583Z,35.42
2023-02-14T12:05:08.587Z,21.42
2023-02-14T12:07:41.172Z,23.30
2023-02-14T12:10:28.137Z,26.95
2023-02-14T12:13:02.750Z,46.42
2023-02-14T12:15:43.549Z,33.55
2023-02-14T12:18:33.215Z,28.02
2023-02-14T12:21:16.364Z,29.15
2023-02-14T12:23:56.131Z,25.08
2023-02-14T12:26:35.445Z,27.50
2023-02-14T12:29:16.754Z,26.70
2023-02-14T12:31:50.150Z,26.92
2023-02-14T12:34:21.948Z,25.63
2023-02-14T12:37:18.052Z,26.00
2023-02-14T12:40:12.793Z,26.85
2023-02-14T12:43:00.517Z,29.30
2023-02-14T12:45:49.077Z,31.17
2023-02-14T12:48:32.442Z,27.40
2023-02-14T12:51:11.479Z,119.80
2023-02-14T12:53:54.734Z,32.47
2023-02-14T12:56:35.015Z,73.53
2023-02-14T12:59:22.978Z,101.65
2023-02-14T13:02:43.249Z,26.33
2023-02-14T13:05:23.478Z,41.53
2023-02-14T13:08:07.917Z,101.32
2023-02-14T13:10:53.501Z,36.83
2023-02-14T13:13:36.076Z,55.30
2023-02-14T13:16:18.268Z,24.80
2023-02-14T13:18:55.592Z,27.63
2023-02-14T13:21:28.915Z,30.52
2023-02-14T13:24:07.337Z,28.60
2023-02-14T13:26:42.160Z,26.38
2023-02-14T13:29:17.008Z,28.13
2023-02-14T13:32:02.337Z,26.48
2023-02-14T13:34:36.875Z,25.23
2023-02-14T13:37:12.839Z,26.42
2023-02-14T13:39:53.254Z,24.20
2023-02-14T13:42:58.118Z,24.40
2023-02-14T13:45:56.955Z,25.80
2023-02-14T13:48:31.784Z,27.33
2023-02-14T13:51:03.818Z,25.42
2023-02-14T13:53:41.229Z,31.50
2023-02-14T13:56:37.273Z,25.45
2023-02-14T13:59:09.445Z,24.67
2023-02-14T14:01:48.633Z,23.05
2023-02-14T14:04:40.281Z,24.60
2023-02-14T14:07:26.017Z,24.65
2023-02-14T14:10:02.514Z,25.05
2023-02-14T14:12:44.008Z,24.90
2023-02-14T14:15:23.297Z,25.45
2023-02-14T14:18:23.722Z,25.85
2023-02-14T14:20:57.255Z,27.30
2023-02-14T14:23:37.221Z,24.83
2023-02-14T14:26:38.232Z,24.55
2023-02-14T14:29:16.099Z,26.13
2023-02-14T14:31:46.882Z,28.52
2023-02-14T14:34:22.546Z,25.85
2023-02-14T14:37:05.461Z,24.05
2023-02-14T14:39:40.081Z,26.48
2023-02-14T14:42:12.881Z,23.75
2023-02-14T14:44:50.399Z,24.52
2023-02-14T14:47:24.828Z,26.15
2023-02-14T14:49:57.033Z,24.70
2023-02-14T14:52:38.112Z,25.60
2023-02-14T14:55:12.801Z,25.10
2023-02-14T14:57:43.344Z,24.70
2023-02-14T15:00:30.669Z,26.25
2023-02-14T15:03:10.186Z,57.58
2023-02-14T15:05:43.071Z,159.35
2023-02-14T15:08:34.538Z,57.30
2023-02-14T15:11:09.620Z,70.68
2023-02-14T15:13:53.877Z,42.55
2023-02-14T15:16:28.205Z,60.08
2023-02-14T15:19:03.403Z,83.43
2023-02-14T15:21:35.221Z,69.50
2023-02-14T15:24:14.413Z,52.08
2023-02-14T15:26:47.387Z,35.70
2023-02-14T15:29:25.506Z,95.43
2023-02-14T15:31:56.588Z,94.00
2023-02-14T15:34:29.711Z,114.00
2023-02-14T15:37:04.112Z,45.43
2023-02-14T15:39:41.754Z,118.13
2023-02-14T15:42:26.107Z,121.40
2023-02-14T15:45:18.274Z,122.70
2023-02-14T15:47:52.194Z,60.80
2023-02-14T15:52:57.689Z,53.50
2023-02-14T15:55:31.669Z,44.00
2023-02-14T15:58:04.445Z,47.67
2023-02-14T16:00:36.211Z,69.10
2023-02-14T16:03:10.315Z,64.30
2023-02-14T16:05:40.823Z,41.50
2023-02-14T16:08:30.688Z,49.75
2023-02-14T16:11:13.855Z,43.03
2023-02-14T16:13:46.566Z,68.95
2023-02-14T16:16:18.578Z,83.18
2023-02-14T16:18:51.106Z,96.28
2023-02-14T16:21:23.998Z,103.38
2023-02-14T16:24:15.580Z,116.82
2023-02-14T16:26:48.977Z,145.88
2023-02-14T16:29:21.300Z,121.88
2023-02-14T16:32:15.174Z,113.68
2023-02-14T16:34:47.590Z,88.85
2023-02-14T16:37:29.274Z,74.35
2023-02-14T16:40:04.121Z,60.08
2023-02-14T16:42:37.194Z,60.10
2023-02-14T16:45:15.786Z,58.53
2023-02-14T16:47:49.415Z,50.20
2023-02-14T16:50:20.506Z,65.38
2023-02-14T16:52:56.091Z,94.15
2023-02-14T16:55:29.110Z,92.68
2023-02-14T16:58:05.560Z,94.13
2023-02-14T17:00:37.322Z,76.57
2023-02-14T17:03:11.774Z,66.32
2023-02-14T17:05:43.130Z,60.25
2023-02-14T17:08:15.544Z,76.88
2023-02-14T17:10:48.646Z,73.82
2023-02-14T17:13:27.258Z,75.80
2023-02-14T17:15:58.778Z,101.65
2023-02-14T17:18:29.498Z,75.25
2023-02-14T17:21:00.472Z,64.18
2023-02-14T17:23:31.354Z,55.15
2023-02-14T17:26:01.493Z,59.40
2023-02-14T17:28:34.499Z,51.83
2023-02-14T17:31:05.364Z,62.70
2023-02-14T17:33:36.429Z,55.10
2023-02-14T17:36:10.748Z,53.45
2023-02-14T17:38:43.849Z,47.90
2023-02-14T17:41:16.711Z,45.35
2023-02-14T17:43:50.881Z,194.23
2023-02-14T17:46:21.668Z,155.30
2023-02-14T17:48:52.314Z,135.70
2023-02-14T17:51:23.099Z,107.38
2023-02-14T17:53:54.301Z,87.47
2023-02-14T17:56:27.490Z,146.90
2023-02-14T17:59:00.644Z,75.13
2023-02-14T18:01:34.625Z,65.97
2023-02-14T18:04:08.724Z,63.22
2023-02-14T18:06:40.667Z,57.75
2023-02-14T18:09:11.247Z,71.03
2023-02-14T18:11:44.645Z,67.13
2023-02-14T18:14:17.693Z,52.83
2023-02-14T18:16:48.614Z,52.47
2023-02-14T18:19:18.793Z,55.30
2023-02-14T18:21:49.390Z,57.85
2023-02-14T18:24:20.254Z,60.97
2023-02-14T18:26:50.685Z,58.03
2023-02-14T18:29:24.352Z,72.00
2023-02-14T18:31:55.744Z,57.53
2023-02-14T18:34:26.386Z,59.42
2023-02-14T18:37:00.193Z,58.28
2023-02-14T18:42:01.543Z,53.25
2023-02-14T18:44:35.113Z,54.25
2023-02-14T18:47:07.405Z,55.58
2023-02-14T18:49:40.573Z,56.88
2023-02-14T18:52:11.020Z,58.13
2023-02-14T18:54:41.481Z,65.50
2023-02-14T18:57:11.705Z,61.75
2023-02-14T18:59:45.512Z,54.67
2023-02-14T19:02:19.099Z,54.60
2023-02-14T19:04:49.911Z,58.63
2023-02-14T19:07:20.518Z,53.08
2023-02-14T19:09:51.493Z,53.22
2023-02-14T19:12:22.174Z,53.30
2023-02-14T19:14:56.576Z,63.47
2023-02-14T19:17:27.625Z,112.72
2023-02-14T19:19:58.678Z,69.93
2023-02-14T19:22:30.730Z,66.18
2023-02-14T19:25:01.311Z,68.95
2023-02-14T19:27:34.452Z,89.07
2023-02-14T19:30:09.046Z,63.05
2023-02-14T19:32:39.482Z,91.55
2023-02-14T19:35:12.408Z,189.20
2023-02-14T19:37:43.073Z,113.30
2023-02-14T19:40:14.293Z,144.88
2023-02-14T19:42:45.585Z,166.85
2023-02-14T19:45:21.431Z,139.90
2023-02-14T19:47:53.143Z,177.88
2023-02-14T19:50:24.574Z,151.70
2023-02-14T19:52:55.154Z,162.25
2023-02-14T19:55:28.189Z,129.93
2023-02-14T19:58:02.818Z,83.35
2023-02-14T20:00:38.687Z,94.07
2023-02-14T20:03:09.707Z,81.10
2023-02-14T20:05:41.821Z,87.95
2023-02-14T20:08:12.394Z,98.03
2023-02-14T20:10:43.971Z,99.15
2023-02-14T20:13:15.053Z,114.72
2023-02-14T20:15:56.978Z,113.72
2023-02-14T20:18:27.412Z,90.28
2023-02-14T20:21:06.730Z,162.68
2023-02-14T20:23:36.985Z,102.32
2023-02-14T20:26:07.371Z,70.88
2023-02-14T20:28:37.821Z,71.57
2023-02-14T20:31:15.759Z,68.30
2023-02-14T20:33:46.201Z,65.55
2023-02-14T20:36:16.552Z,59.00
2023-02-14T20:38:47.270Z,59.20
2023-02-14T20:41:19.419Z,57.83
2023-02-14T20:43:49.768Z,54.78
2023-02-14T20:46:23.215Z,57.85
2023-02-14T20:48:54.724Z,57.67
2023-02-14T20:51:25.265Z,57.97
2023-02-14T20:53:56.071Z,57.83
2023-02-14T20:56:27.512Z,58.03
2023-02-14T20:58:57.812Z,58.30
2023-02-14T21:01:32.418Z,56.92
2023-02-14T21:04:03.749Z,58.08
2023-02-14T21:06:37.404Z,60.42
2023-02-14T21:09:09.532Z,58.65
2023-02-14T21:11:39.932Z,62.30
2023-02-14T21:14:10.766Z,62.38
2023-02-14T21:16:44.443Z,60.38
2023-02-14T21:19:15.150Z,58.80
2023-02-14T21:21:45.611Z,60.25
2023-02-14T21:24:18.532Z,62.10
2023-02-14T21:26:49.288Z,66.17
2023-02-14T21:29:20.217Z,64.63
2023-02-14T21:31:53.703Z,62.60
2023-02-14T21:34:24.154Z,65.38
2023-02-14T21:36:56.495Z,63.42
2023-02-14T21:39:28.598Z,55.72
2023-02-14T21:42:01.765Z,58.10
2023-02-14T21:44:44.292Z,56.85
2023-02-14T21:47:17.957Z,58.60
2023-02-14T21:50:00.686Z,63.72
2023-02-14T21:52:31.818Z,61.70
2023-02-14T21:55:02.114Z,61.42
2023-02-14T21:57:33.439Z,64.90
2023-02-14T22:00:04.495Z,85.45
2023-02-14T22:02:44.544Z,87.18
2023-02-14T22:07:45.798Z,57.65
2023-02-14T22:10:16.112Z,59.03
2023-02-14T22:12:46.618Z,61.78
2023-02-14T22:15:17.350Z,64.03
2023-02-14T22:17:50.607Z,58.90
2023-02-14T22:20:21.120Z,58.20
2023-02-14T22:22:51.751Z,57.35
2023-02-14T22:25:22.372Z,55.72
2023-02-14T22:27:52.655Z,57.33
2023-02-14T22:30:23.543Z,55.85
2023-02-14T22:32:57.434Z,60.22
2023-02-14T22:35:27.758Z,57.30
2023-02-14T22:37:58.088Z,56.38
2023-02-14T22:40:28.512Z,56.63
2023-02-14T22:43:01.186Z,56.40
2023-02-14T22:45:32.710Z,56.72
2023-02-14T22:48:06.200Z,59.30
2023-02-14T22:50:37.048Z,59.22
2023-02-14T22:53:08.087Z,56.20
2023-02-14T22:55:38.692Z,58.20
2023-02-14T22:58:09.491Z,56.92
2023-02-14T23:00:40.984Z,58.03
2023-02-14T23:03:14.377Z,58.72
2023-02-14T23:05:44.598Z,57.58
2023-02-14T23:08:14.935Z,56.28
2023-02-14T23:10:45.562Z,58.13
2023-02-14T23:13:28.065Z,54.88
2023-02-14T23:16:10.910Z,55.28
2023-02-14T23:18:56.541Z,55.63
2023-02-14T23:21:39.313Z,56.08
2023-02-14T23:24:12.755Z,53.92
2023-02-14T23:26:43.483Z,56.97
2023-02-14T23:29:13.798Z,58.30
2023-02-14T23:31:44.205Z,57.35
2023-02-14T23:34:17.603Z,60.03
2023-02-14T23:36:48.036Z,55.13
2023-02-14T23:39:18.516Z,61.53
2023-02-14T23:41:52.070Z,60.05
2023-02-14T23:44:24.101Z,60.80
2023-02-14T23:46:56.765Z,58.35
2023-02-14T23:49:30.807Z,57.60
2023-02-14T23:52:01.238Z,60.35
2023-02-14T23:54:31.898Z,57.80
2023-02-14T23:57:02.218Z,59.22
2023-02-14T23:59:32.684Z,57.10
